Time;durP1;ratioP1;P1;durP2;ratioP2;P2;SDS_P1;SDS_P2;PMS_P1;PMS_P2;Temp;Humidity;BMP_temperature;BMP_pressure;BME280_temperature;BME280_humidity;BME280_pressure;Samples;Min_cycle;Max_cycle;Signal;HPM_P1;HPM_P2
2024/02/24 00:00:24;;;;;;;4.10;2.03;;;5.20;99.90;;;;;;5026759;28;20190;-73
2024/02/24 00:02:50;;;;;;;3.73;2.00;;;5.20;99.90;;;;;;5024168;28;20175;-76
2024/02/24 00:05:16;;;;;;;1.80;1.00;;;5.20;99.90;;;;;;5014278;28;20599;-76
2024/02/24 00:07:41;;;;;;;2.30;1.20;;;5.30;99.90;;;;;;5009881;28;20201;-76
2024/02/24 00:10:07;;;;;;;2.53;1.10;;;5.30;99.90;;;;;;5011718;28;20202;-74
2024/02/24 00:12:33;;;;;;;2.43;1.87;;;5.30;99.90;;;;;;5014671;28;20183;-73
2024/02/24 00:14:59;;;;;;;3.03;1.10;;;5.30;99.90;;;;;;5015078;28;20450;-74
2024/02/24 00:17:25;;;;;;;1.90;1.30;;;5.40;99.90;;;;;;4994360;28;20299;-75
2024/02/24 00:19:50;;;;;;;1.67;1.20;;;5.40;99.90;;;;;;5003112;28;20231;-73
2024/02/24 00:22:16;;;;;;;3.00;1.33;;;5.40;99.90;;;;;;4999123;28;20430;-74
2024/02/24 00:24:41;;;;;;;2.30;1.33;;;5.50;99.90;;;;;;5020959;28;20198;-72
2024/02/24 00:27:07;;;;;;;2.63;1.70;;;5.50;99.90;;;;;;5019753;28;20212;-74
2024/02/24 00:29:32;;;;;;;1.97;1.47;;;5.60;99.90;;;;;;5011345;28;20606;-72
2024/02/24 00:31:58;;;;;;;1.83;1.20;;;5.70;99.90;;;;;;5001514;28;20194;-74
2024/02/24 00:34:24;;;;;;;1.83;1.10;;;5.70;99.90;;;;;;5022256;28;20213;-73
2024/02/24 00:36:50;;;;;;;2.03;1.20;;;5.70;99.90;;;;;;5020091;28;20438;-74
2024/02/24 00:39:15;;;;;;;1.83;1.13;;;5.80;99.90;;;;;;5014846;28;20591;-73
2024/02/24 00:41:42;;;;;;;3.43;1.53;;;5.80;99.90;;;;;;5010572;28;20188;-75
2024/02/24 00:44:09;;;;;;;2.13;1.23;;;5.90;99.90;;;;;;5020428;28;20194;-75
2024/02/24 00:46:35;;;;;;;2.60;1.43;;;5.90;99.90;;;;;;5011660;28;20442;-74
2024/02/24 00:49:01;;;;;;;1.90;1.07;;;5.90;99.90;;;;;;5003429;28;20430;-75
2024/02/24 00:51:27;;;;;;;6.30;1.23;;;5.90;99.90;;;;;;5015482;28;20466;-76
2024/02/24 00:53:52;;;;;;;1.63;1.10;;;5.90;99.90;;;;;;5002492;28;20237;-74
2024/02/24 00:56:19;;;;;;;3.23;1.97;;;5.80;99.90;;;;;;5016127;28;20294;-77
2024/02/24 00:58:44;;;;;;;1.90;1.10;;;5.80;99.90;;;;;;5025253;28;20582;-74
2024/02/24 01:01:10;;;;;;;1.50;1.10;;;5.80;99.90;;;;;;5019135;28;20418;-73
2024/02/24 01:03:36;;;;;;;1.70;1.23;;;5.80;99.90;;;;;;5008351;28;20239;-72
2024/02/24 01:06:01;;;;;;;2.60;1.40;;;5.70;99.90;;;;;;5012229;28;20219;-75
2024/02/24 01:08:27;;;;;;;2.07;1.10;;;5.70;99.90;;;;;;5002771;28;20199;-71
2024/02/24 01:10:52;;;;;;;2.00;1.17;;;5.70;99.90;;;;;;5009847;28;20190;-73
2024/02/24 01:13:18;;;;;;;2.80;1.27;;;5.60;99.90;;;;;;5001355;28;20242;-73
2024/02/24 01:15:44;;;;;;;1.20;0.90;;;5.60;99.90;;;;;;5003037;28;20261;-73
2024/02/24 01:18:09;;;;;;;1.97;1.53;;;5.60;99.90;;;;;;5013032;28;20606;-73
2024/02/24 01:20:35;;;;;;;1.93;1.13;;;5.60;99.90;;;;;;5005074;28;20704;-74
2024/02/24 01:23:01;;;;;;;1.87;1.03;;;5.60;99.90;;;;;;5009716;28;20282;-72
2024/02/24 01:25:26;;;;;;;3.83;1.40;;;5.60;99.90;;;;;;5013126;28;20210;-77
2024/02/24 01:27:53;;;;;;;2.13;1.20;;;5.60;99.90;;;;;;4997047;28;20475;-74
2024/02/24 01:30:19;;;;;;;1.43;0.80;;;5.60;99.90;;;;;;5009846;28;20223;-74
2024/02/24 01:32:44;;;;;;;3.73;1.80;;;5.50;99.90;;;;;;5006601;28;20434;-74
2024/02/24 01:35:10;;;;;;;1.67;1.10;;;5.50;99.90;;;;;;5017888;28;20202;-76
2024/02/24 01:37:37;;;;;;;1.67;1.17;;;5.50;99.90;;;;;;5016940;28;20223;-74
2024/02/24 01:40:06;;;;;;;2.00;1.50;;;5.50;99.90;;;;;;5025132;28;20418;-72
2024/02/24 01:42:32;;;;;;;3.80;1.20;;;5.50;99.90;;;;;;5020271;28;20502;-72
2024/02/24 01:44:58;;;;;;;2.60;1.10;;;5.50;99.90;;;;;;5014375;28;20399;-71
2024/02/24 01:47:24;;;;;;;2.10;1.20;;;5.50;99.90;;;;;;5009761;28;20286;-71
2024/02/24 01:49:52;;;;;;;1.10;0.90;;;5.40;99.90;;;;;;5019102;28;20222;-71
2024/02/24 01:52:18;;;;;;;1.60;1.10;;;5.40;99.90;;;;;;5014187;28;20206;-72
2024/02/24 01:54:44;;;;;;;1.20;0.97;;;5.40;99.90;;;;;;5019511;28;20458;-71
2024/02/24 01:57:11;;;;;;;1.53;0.90;;;5.40;99.90;;;;;;5022511;28;20445;-73
2024/02/24 01:59:39;;;;;;;2.17;1.13;;;5.40;99.90;;;;;;5015348;28;20187;-73
2024/02/24 02:02:04;;;;;;;1.73;1.00;;;5.50;99.90;;;;;;5018314;28;20418;-74
2024/02/24 02:04:30;;;;;;;1.63;0.97;;;5.50;99.90;;;;;;5017995;28;20423;-71
2024/02/24 02:06:57;;;;;;;1.43;0.83;;;5.50;99.90;;;;;;5016124;28;20250;-71
2024/02/24 02:09:22;;;;;;;1.90;0.73;;;5.40;99.90;;;;;;5020377;28;20468;-73
2024/02/24 02:11:48;;;;;;;3.20;1.40;;;5.40;99.90;;;;;;5021379;28;20427;-73
2024/02/24 02:14:14;;;;;;;1.43;1.00;;;5.40;99.90;;;;;;5017286;28;20278;-72
2024/02/24 02:16:40;;;;;;;2.00;1.13;;;5.40;99.90;;;;;;5012354;28;21133;-72
2024/02/24 02:19:05;;;;;;;1.67;0.93;;;5.40;99.90;;;;;;5010204;28;20242;-71
2024/02/24 02:21:32;;;;;;;1.77;0.80;;;5.40;99.90;;;;;;5010380;28;20203;-72
2024/02/24 02:23:59;;;;;;;2.30;1.00;;;5.40;99.90;;;;;;5014227;28;20215;-72
2024/02/24 02:26:25;;;;;;;2.03;1.00;;;5.40;99.90;;;;;;4996393;28;20477;-73
2024/02/24 02:28:50;;;;;;;1.30;0.70;;;5.30;99.90;;;;;;5008171;28;20390;-72
2024/02/24 02:31:16;;;;;;;1.70;0.83;;;5.30;99.90;;;;;;5009873;28;20234;-71
2024/02/24 02:33:42;;;;;;;3.53;1.10;;;5.40;99.90;;;;;;5015045;28;20219;-71
2024/02/24 02:36:08;;;;;;;1.47;1.03;;;5.30;99.90;;;;;;5013787;28;20215;-70
2024/02/24 02:38:33;;;;;;;2.50;1.03;;;5.30;99.90;;;;;;5003851;28;20183;-71
2024/02/24 02:41:01;;;;;;;2.53;0.83;;;5.30;99.90;;;;;;5009936;28;20851;-74
2024/02/24 02:43:27;;;;;;;1.07;0.80;;;5.30;99.90;;;;;;5010978;28;20479;-73
2024/02/24 02:45:53;;;;;;;1.83;1.03;;;5.30;99.90;;;;;;5020399;28;20454;-72
2024/02/24 02:48:18;;;;;;;1.90;1.13;;;5.30;99.90;;;;;;5014547;28;20265;-72
2024/02/24 02:50:44;;;;;;;1.33;0.93;;;5.30;99.90;;;;;;5009995;28;20697;-73
2024/02/24 02:53:09;;;;;;;1.20;0.87;;;5.30;99.90;;;;;;5017493;28;20238;-72
2024/02/24 02:55:35;;;;;;;2.10;0.90;;;5.30;99.90;;;;;;5011820;28;20253;-73
2024/02/24 02:58:01;;;;;;;1.40;0.93;;;5.30;99.90;;;;;;5010034;28;20219;-73
2024/02/24 03:00:26;;;;;;;1.50;0.90;;;5.30;99.90;;;;;;5015266;28;20187;-72
2024/02/24 03:02:52;;;;;;;2.70;1.10;;;5.30;99.90;;;;;;5015622;28;20507;-72
2024/02/24 03:05:18;;;;;;;1.57;0.80;;;5.30;99.90;;;;;;5009655;28;20200;-71
2024/02/24 03:07:43;;;;;;;2.30;0.93;;;5.30;99.90;;;;;;5005585;28;20160;-75
2024/02/24 03:10:09;;;;;;;2.00;1.20;;;5.30;99.90;;;;;;5014538;28;20262;-72
2024/02/24 03:12:35;;;;;;;5.43;1.80;;;5.20;99.90;;;;;;5010798;28;20561;-72
2024/02/24 03:15:00;;;;;;;1.63;0.90;;;5.20;99.90;;;;;;5010917;28;20212;-72
2024/02/24 03:17:26;;;;;;;1.30;0.77;;;5.20;99.90;;;;;;5010497;28;20276;-72
2024/02/24 03:19:51;;;;;;;2.47;0.93;;;5.20;99.90;;;;;;5010696;28;20576;-72
2024/02/24 03:22:17;;;;;;;1.30;0.80;;;5.10;99.90;;;;;;5014479;28;20196;-73
2024/02/24 03:24:43;;;;;;;2.67;1.10;;;5.10;99.90;;;;;;5006950;28;20211;-71
2024/02/24 03:27:12;;;;;;;1.60;1.00;;;5.00;99.90;;;;;;5014440;28;20195;-72
2024/02/24 03:29:38;;;;;;;1.27;0.80;;;5.00;99.90;;;;;;5001727;28;20446;-72
2024/02/24 03:32:05;;;;;;;1.30;0.80;;;5.00;99.90;;;;;;5013338;28;20429;-72
2024/02/24 03:34:30;;;;;;;1.80;0.97;;;4.90;99.90;;;;;;5017870;28;20207;-73
2024/02/24 03:36:56;;;;;;;1.73;0.87;;;4.90;99.90;;;;;;5020697;28;20484;-71
2024/02/24 03:39:22;;;;;;;1.83;1.00;;;4.80;99.90;;;;;;5011938;28;20175;-72
2024/02/24 03:41:48;;;;;;;0.93;0.60;;;4.80;99.90;;;;;;5019815;28;20175;-73
2024/02/24 03:44:14;;;;;;;1.87;0.87;;;4.80;99.90;;;;;;5007379;28;20186;-71
2024/02/24 03:46:39;;;;;;;1.47;1.03;;;4.80;99.90;;;;;;5000569;28;20454;-73
2024/02/24 03:49:05;;;;;;;1.30;0.70;;;4.70;99.90;;;;;;4999605;28;20191;-71
2024/02/24 03:51:31;;;;;;;1.37;0.70;;;4.70;99.90;;;;;;5012829;28;20269;-71
2024/02/24 03:53:56;;;;;;;1.10;0.70;;;4.70;99.90;;;;;;4992193;28;20234;-71
2024/02/24 03:56:22;;;;;;;1.27;0.90;;;4.70;99.90;;;;;;5010022;28;20234;-72
2024/02/24 03:58:48;;;;;;;1.97;1.17;;;4.70;99.90;;;;;;5009721;28;20191;-73
2024/02/24 04:01:13;;;;;;;1.93;0.83;;;4.70;99.90;;;;;;5009605;28;20167;-72
2024/02/24 04:03:39;;;;;;;1.53;0.80;;;4.60;99.90;;;;;;5015274;28;20191;-71
2024/02/24 04:06:05;;;;;;;1.43;0.60;;;4.60;99.90;;;;;;5006289;28;20211;-71
2024/02/24 04:08:31;;;;;;;1.43;0.73;;;4.50;99.90;;;;;;5006818;28;20514;-72
2024/02/24 04:10:58;;;;;;;1.30;0.80;;;4.50;99.90;;;;;;5012393;28;20473;-71
2024/02/24 04:13:23;;;;;;;1.10;0.83;;;4.50;99.90;;;;;;5013857;28;20233;-73
2024/02/24 04:15:50;;;;;;;1.30;0.90;;;4.50;99.90;;;;;;5011787;28;20442;-73
2024/02/24 04:18:16;;;;;;;1.43;0.90;;;4.60;99.90;;;;;;5013481;28;20183;-72
2024/02/24 04:20:44;;;;;;;1.37;0.80;;;4.60;99.90;;;;;;5009962;28;20442;-72
2024/02/24 04:23:09;;;;;;;1.30;0.80;;;4.60;99.90;;;;;;5008667;28;20480;-72
2024/02/24 04:25:35;;;;;;;1.03;0.73;;;4.60;99.90;;;;;;5005698;28;20446;-71
2024/02/24 04:28:01;;;;;;;1.10;0.80;;;4.70;99.90;;;;;;5008843;28;20198;-73
2024/02/24 04:30:26;;;;;;;2.70;0.93;;;4.70;99.90;;;;;;5016799;28;20175;-73
2024/02/24 04:32:52;;;;;;;1.57;1.00;;;4.80;99.90;;;;;;5010072;28;20187;-73
2024/02/24 04:35:17;;;;;;;1.67;1.03;;;4.80;99.90;;;;;;5007612;28;20225;-71
2024/02/24 04:37:43;;;;;;;1.57;0.90;;;4.90;99.90;;;;;;5005517;28;20179;-71
2024/02/24 04:40:09;;;;;;;1.50;1.00;;;4.90;99.90;;;;;;5017783;28;20543;-72
2024/02/24 04:42:34;;;;;;;1.77;0.90;;;4.90;99.90;;;;;;5019032;28;20196;-72
2024/02/24 04:45:00;;;;;;;1.93;0.90;;;4.90;99.90;;;;;;5010711;28;20182;-72
2024/02/24 04:47:28;;;;;;;1.27;0.93;;;4.90;99.90;;;;;;5008404;28;20210;-72
2024/02/24 04:49:55;;;;;;;1.53;1.03;;;4.90;99.90;;;;;;5009663;28;20297;-73
2024/02/24 04:52:20;;;;;;;2.80;0.90;;;4.90;99.90;;;;;;5006966;28;20774;-72
2024/02/24 04:54:47;;;;;;;1.50;0.83;;;4.90;99.90;;;;;;5004946;28;20593;-71
2024/02/24 04:57:13;;;;;;;1.23;0.80;;;4.90;99.90;;;;;;5008772;28;20212;-72
2024/02/24 04:59:38;;;;;;;0.90;0.60;;;4.90;99.90;;;;;;5001865;28;20450;-72
2024/02/24 05:02:04;;;;;;;1.20;0.90;;;4.80;99.90;;;;;;5017772;28;20737;-73
2024/02/24 05:04:29;;;;;;;2.30;1.23;;;4.80;99.90;;;;;;5011003;28;20195;-73
2024/02/24 05:06:55;;;;;;;2.00;0.90;;;4.70;99.90;;;;;;5021859;28;20227;-74
2024/02/24 05:09:21;;;;;;;1.67;0.70;;;4.70;99.90;;;;;;5016162;28;20182;-76
2024/02/24 05:11:46;;;;;;;3.63;1.00;;;4.70;99.90;;;;;;4998752;28;20199;-73
2024/02/24 05:14:13;;;;;;;2.27;1.10;;;4.70;99.90;;;;;;5014527;28;20210;-72
2024/02/24 05:16:39;;;;;;;1.50;1.10;;;4.70;99.90;;;;;;5006614;28;20255;-73
2024/02/24 05:19:05;;;;;;;1.30;1.00;;;4.80;99.90;;;;;;5007064;28;20429;-70
2024/02/24 05:21:31;;;;;;;1.83;1.20;;;4.80;99.90;;;;;;5012639;28;20613;-70
2024/02/24 05:23:56;;;;;;;2.37;1.20;;;4.80;99.90;;;;;;5017875;28;20199;-72
2024/02/24 05:26:26;;;;;;;1.20;0.90;;;4.90;99.90;;;;;;5012351;28;20716;-75
2024/02/24 05:28:52;;;;;;;1.50;1.20;;;4.90;99.90;;;;;;5012678;28;20463;-72
2024/02/24 05:31:18;;;;;;;1.30;0.90;;;4.80;99.90;;;;;;5010550;28;20414;-73
2024/02/24 05:33:46;;;;;;;2.00;1.00;;;4.80;99.90;;;;;;5004513;28;20465;-72
2024/02/24 05:36:11;;;;;;;3.57;1.10;;;4.70;99.90;;;;;;5003502;28;20505;-72
2024/02/24 05:38:37;;;;;;;1.90;0.80;;;4.70;99.90;;;;;;5017995;28;20467;-72
2024/02/24 05:41:03;;;;;;;1.70;1.03;;;4.80;99.90;;;;;;5015257;28;20752;-73
2024/02/24 05:43:32;;;;;;;1.77;0.90;;;4.80;99.90;;;;;;5011737;28;20203;-72
2024/02/24 05:45:59;;;;;;;6.30;2.03;;;4.90;99.90;;;;;;5007523;28;20227;-71
2024/02/24 05:48:26;;;;;;;2.23;1.53;;;5.00;99.90;;;;;;5012174;28;20967;-74
2024/02/24 05:50:53;;;;;;;3.03;1.67;;;5.00;99.90;;;;;;5015936;28;20949;-72
2024/02/24 05:53:18;;;;;;;1.70;1.30;;;5.00;99.90;;;;;;5023895;28;20581;-73
2024/02/24 05:55:46;;;;;;;1.43;1.13;;;5.00;99.90;;;;;;5015981;28;20899;-72
2024/02/24 05:58:12;;;;;;;1.10;0.90;;;5.00;99.90;;;;;;5007600;28;20468;-71
2024/02/24 06:00:39;;;;;;;1.80;1.17;;;5.00;99.90;;;;;;5003151;28;20770;-73
2024/02/24 06:03:07;;;;;;;1.80;1.20;;;5.00;99.90;;;;;;5012099;28;20461;-72
2024/02/24 06:05:33;;;;;;;1.17;1.00;;;5.10;99.90;;;;;;5010593;28;20478;-74
2024/02/24 06:07:58;;;;;;;1.73;1.07;;;5.10;99.90;;;;;;5010284;28;20426;-73
2024/02/24 06:10:24;;;;;;;1.20;1.03;;;5.10;99.90;;;;;;5022658;28;20231;-72
2024/02/24 06:12:50;;;;;;;1.70;0.83;;;5.10;99.90;;;;;;5011353;28;20197;-72
2024/02/24 06:15:15;;;;;;;1.47;1.10;;;5.10;99.90;;;;;;5007618;28;20263;-71
2024/02/24 06:17:41;;;;;;;2.70;1.40;;;5.20;99.90;;;;;;5006267;28;20187;-72
2024/02/24 06:20:07;;;;;;;2.37;1.23;;;5.20;99.90;;;;;;5011316;28;20271;-71
2024/02/24 06:22:32;;;;;;;1.80;1.13;;;5.20;99.90;;;;;;5009074;28;20199;-72
2024/02/24 06:24:58;;;;;;;1.60;0.97;;;5.30;99.90;;;;;;5012979;28;20881;-72
2024/02/24 06:27:24;;;;;;;1.80;1.30;;;5.30;99.90;;;;;;5010457;28;20203;-72
2024/02/24 06:29:49;;;;;;;1.67;1.20;;;5.30;99.90;;;;;;5016741;28;20175;-71
2024/02/24 06:32:15;;;;;;;1.50;1.10;;;5.30;99.90;;;;;;5008798;28;20390;-71
2024/02/24 06:34:44;;;;;;;3.17;1.30;;;5.30;99.90;;;;;;5011869;28;20246;-71
2024/02/24 06:37:11;;;;;;;3.33;1.60;;;5.30;99.90;;;;;;5012495;28;20221;-74
2024/02/24 06:39:37;;;;;;;2.43;1.20;;;5.30;99.90;;;;;;5011867;28;20464;-72
2024/02/24 06:42:02;;;;;;;1.80;1.33;;;5.40;99.90;;;;;;5016513;28;20425;-71
2024/02/24 06:44:28;;;;;;;2.83;1.60;;;5.40;99.90;;;;;;5010421;28;20209;-72
2024/02/24 06:46:53;;;;;;;1.70;1.27;;;5.40;99.90;;;;;;5010529;28;20282;-72
2024/02/24 06:49:19;;;;;;;9.53;2.30;;;5.40;99.90;;;;;;5007503;28;20230;-71
2024/02/24 06:51:45;;;;;;;2.10;1.40;;;5.50;99.90;;;;;;5007912;28;20223;-71
2024/02/24 06:54:10;;;;;;;2.27;1.47;;;5.50;99.90;;;;;;5012071;28;20215;-74
2024/02/24 06:56:36;;;;;;;2.80;1.43;;;5.50;99.90;;;;;;4991866;28;20235;-73
2024/02/24 06:59:05;;;;;;;2.43;1.47;;;5.50;99.90;;;;;;5019642;28;20198;-73
2024/02/24 07:01:32;;;;;;;1.83;1.27;;;5.60;99.90;;;;;;5009524;28;20199;-71
2024/02/24 07:03:58;;;;;;;2.73;1.30;;;5.60;99.90;;;;;;5011219;28;20447;-74
2024/02/24 07:06:24;;;;;;;1.80;1.33;;;5.60;99.90;;;;;;5014337;28;20466;-72
2024/02/24 07:08:49;;;;;;;2.00;1.40;;;5.60;99.90;;;;;;5010921;28;20467;-73
2024/02/24 07:11:15;;;;;;;2.43;1.50;;;5.70;99.90;;;;;;5013991;28;20190;-72
2024/02/24 07:13:41;;;;;;;2.57;1.60;;;5.70;99.90;;;;;;5020949;28;20202;-71
2024/02/24 07:16:08;;;;;;;4.53;1.67;;;5.70;99.90;;;;;;5009027;28;20446;-72
2024/02/24 07:18:33;;;;;;;4.30;2.10;;;5.80;99.90;;;;;;5020036;28;20251;-73
2024/02/24 07:21:01;;;;;;;2.50;1.60;;;5.90;99.90;;;;;;5017601;28;20435;-72
2024/02/24 07:23:26;;;;;;;3.47;1.57;;;5.80;99.90;;;;;;5022639;28;20193;-72
2024/02/24 07:25:52;;;;;;;1.50;1.07;;;5.90;99.90;;;;;;5020762;28;20446;-72
2024/02/24 07:28:18;;;;;;;1.50;1.00;;;5.90;99.90;;;;;;5007064;28;20187;-71
2024/02/24 07:30:44;;;;;;;2.50;1.20;;;5.90;99.90;;;;;;5006394;28;20213;-74
2024/02/24 07:33:09;;;;;;;1.87;1.30;;;5.90;99.90;;;;;;5013647;28;20187;-72
2024/02/24 07:35:35;;;;;;;2.23;1.17;;;5.90;99.90;;;;;;5010250;28;20474;-72
2024/02/24 07:38:00;;;;;;;2.10;1.20;;;6.00;99.90;;;;;;5005905;28;20524;-75
2024/02/24 07:40:26;;;;;;;1.27;1.10;;;6.00;99.90;;;;;;5002722;28;20175;-72
2024/02/24 07:42:54;;;;;;;2.33;1.87;;;6.00;99.90;;;;;;5007353;28;20681;-73
2024/02/24 07:45:22;;;;;;;3.33;1.27;;;6.00;99.90;;;;;;5014405;28;20427;-73
2024/02/24 07:47:48;;;;;;;2.17;1.40;;;6.00;99.90;;;;;;5009038;28;20423;-73
2024/02/24 07:50:14;;;;;;;2.13;1.50;;;6.00;99.90;;;;;;5008309;28;20454;-72
2024/02/24 07:52:39;;;;;;;2.60;1.20;;;6.00;99.90;;;;;;4995465;28;20446;-73
2024/02/24 07:55:06;;;;;;;3.13;1.10;;;6.00;99.90;;;;;;5008781;28;20238;-73
2024/02/24 07:57:32;;;;;;;2.10;1.20;;;5.90;99.90;;;;;;5005534;28;20213;-73
2024/02/24 07:59:57;;;;;;;1.97;1.10;;;5.90;99.90;;;;;;5009449;28;20803;-74
2024/02/24 08:02:23;;;;;;;1.63;1.10;;;5.90;99.90;;;;;;5018110;28;20457;-71
2024/02/24 08:04:49;;;;;;;1.93;1.30;;;5.90;99.90;;;;;;5016302;28;20246;-73
2024/02/24 08:07:14;;;;;;;5.03;1.43;;;5.90;99.90;;;;;;5012736;28;20614;-72
2024/02/24 08:09:40;;;;;;;1.93;1.23;;;5.90;99.90;;;;;;4986376;28;20230;-72
2024/02/24 08:12:06;;;;;;;2.60;1.40;;;6.00;99.90;;;;;;5006904;28;20254;-73
2024/02/24 08:14:31;;;;;;;1.73;1.10;;;6.00;99.90;;;;;;5016235;28;20222;-74
2024/02/24 08:16:57;;;;;;;3.10;1.57;;;6.00;99.90;;;;;;5000120;28;20454;-75
2024/02/24 08:19:23;;;;;;;1.70;1.27;;;6.00;99.90;;;;;;5014250;28;20327;-72
2024/02/24 08:21:49;;;;;;;2.80;0.90;;;6.00;99.90;;;;;;5016982;28;20549;-72
2024/02/24 08:24:16;;;;;;;2.30;1.20;;;6.10;99.90;;;;;;5010514;28;20194;-76
2024/02/24 08:26:43;;;;;;;1.50;1.00;;;6.10;99.90;;;;;;5015106;28;20437;-71
2024/02/24 08:29:09;;;;;;;2.10;0.70;;;6.10;99.90;;;;;;5015783;28;20402;-73
2024/02/24 08:31:38;;;;;;;1.40;0.73;;;6.20;99.90;;;;;;5016846;28;20424;-75
2024/02/24 08:34:03;;;;;;;1.23;0.80;;;6.20;99.90;;;;;;5008493;28;20501;-75
2024/02/24 08:36:29;;;;;;;3.20;1.10;;;6.10;99.90;;;;;;5015040;28;20470;-74
2024/02/24 08:38:59;;;;;;;2.50;1.00;;;6.10;99.90;;;;;;5003269;28;20603;-74
2024/02/24 08:41:26;;;;;;;1.60;0.73;;;6.00;99.90;;;;;;5009213;28;20194;-72
2024/02/24 08:43:52;;;;;;;2.00;1.20;;;5.90;99.90;;;;;;5012317;28;20430;-75
2024/02/24 08:46:19;;;;;;;1.10;0.70;;;5.90;99.90;;;;;;5012579;28;20469;-73
2024/02/24 08:48:45;;;;;;;1.60;1.10;;;5.90;99.90;;;;;;5012531;28;20711;-74
2024/02/24 08:51:11;;;;;;;1.03;0.70;;;5.80;99.90;;;;;;5012619;28;20538;-74
2024/02/24 08:53:36;;;;;;;1.30;0.93;;;5.80;99.90;;;;;;5008433;28;20497;-75
2024/02/24 08:56:02;;;;;;;1.40;0.73;;;5.80;99.90;;;;;;5009920;28;20215;-73
2024/02/24 08:58:28;;;;;;;1.73;0.80;;;5.80;99.90;;;;;;5019629;28;20223;-73
2024/02/24 09:00:56;;;;;;;1.57;0.87;;;5.90;99.90;;;;;;5010835;28;20215;-72
2024/02/24 09:03:22;;;;;;;2.50;0.90;;;5.90;99.90;;;;;;5019782;28;20441;-73
2024/02/24 09:05:48;;;;;;;2.03;0.70;;;6.00;99.90;;;;;;5023464;28;20446;-72
2024/02/24 09:08:14;;;;;;;1.23;0.90;;;6.00;99.90;;;;;;5025200;28;20424;-74
2024/02/24 09:10:39;;;;;;;1.00;0.60;;;6.20;99.90;;;;;;5015860;28;20262;-73
2024/02/24 09:13:05;;;;;;;2.33;2.13;;;6.30;99.90;;;;;;5021881;28;20572;-74
2024/02/24 09:15:30;;;;;;;1.37;0.60;;;6.50;99.90;;;;;;5019630;28;20199;-72
2024/02/24 09:17:56;;;;;;;1.00;0.60;;;6.70;99.90;;;;;;5021441;28;20529;-73
2024/02/24 09:20:22;;;;;;;1.10;0.60;;;7.00;99.90;;;;;;5013330;28;20525;-73
2024/02/24 09:22:49;;;;;;;1.07;0.70;;;7.10;99.90;;;;;;5014129;28;20187;-72
2024/02/24 09:25:15;;;;;;;1.03;0.70;;;7.20;99.90;;;;;;5017031;28;20282;-74
2024/02/24 09:27:42;;;;;;;2.50;1.03;;;7.30;99.90;;;;;;5023604;28;20409;-74
2024/02/24 09:30:10;;;;;;;1.90;0.73;;;7.40;99.90;;;;;;5010913;28;20453;-75
2024/02/24 09:32:37;;;;;;;1.00;0.60;;;7.50;99.90;;;;;;5016860;28;20422;-75
2024/02/24 09:35:03;;;;;;;1.73;1.03;;;7.50;99.90;;;;;;5014888;28;20462;-77
2024/02/24 09:37:29;;;;;;;1.23;0.70;;;7.60;99.90;;;;;;4998680;28;20446;-76
2024/02/24 09:39:55;;;;;;;1.50;0.87;;;7.70;99.90;;;;;;5021813;28;20462;-77
2024/02/24 09:42:27;;;;;;;1.30;1.00;;;7.80;99.90;;;;;;5016022;28;20210;-73
2024/02/24 09:44:58;;;;;;;1.30;0.80;;;7.80;99.90;;;;;;5011669;28;20215;-73
2024/02/24 09:47:27;;;;;;;2.03;0.70;;;8.00;99.90;;;;;;5019910;28;20446;-76
2024/02/24 09:49:55;;;;;;;1.33;0.83;;;8.20;99.90;;;;;;5016370;28;20464;-73
2024/02/24 09:52:21;;;;;;;1.67;0.70;;;8.50;99.90;;;;;;5017483;28;20483;-74
2024/02/24 09:54:48;;;;;;;1.73;1.03;;;8.70;99.90;;;;;;5018843;28;20458;-75
2024/02/24 09:57:18;;;;;;;1.30;0.90;;;8.80;99.90;;;;;;4996865;28;20299;-75
2024/02/24 09:59:48;;;;;;;1.00;0.70;;;8.90;99.60;;;;;;5009245;28;20423;-74
2024/02/24 10:02:14;;;;;;;1.27;0.80;;;9.00;99.90;;;;;;5021660;28;20834;-74
2024/02/24 10:04:41;;;;;;;3.47;1.00;;;9.00;95.50;;;;;;5021814;28;20434;-77
2024/02/24 10:07:07;;;;;;;1.67;0.70;;;9.00;92.80;;;;;;5017255;28;20451;-76
2024/02/24 10:09:33;;;;;;;2.37;1.10;;;9.00;93.90;;;;;;5019651;28;20429;-76
2024/02/24 10:12:02;;;;;;;2.00;1.03;;;9.00;94.20;;;;;;5015980;28;20239;-77
2024/02/24 10:14:32;;;;;;;1.83;0.70;;;9.10;94.00;;;;;;5016569;28;20451;-76
2024/02/24 10:16:59;;;;;;;2.53;0.70;;;9.10;93.20;;;;;;4991730;28;20445;-75
2024/02/24 10:19:30;;;;;;;1.10;0.70;;;9.20;91.10;;;;;;4999696;28;20431;-74
2024/02/24 10:22:00;;;;;;;1.00;0.70;;;9.30;89.70;;;;;;4998384;28;20569;-75
2024/02/24 10:24:26;;;;;;;4.40;0.77;;;9.20;87.10;;;;;;5027631;28;20426;-78
2024/02/24 10:26:52;;;;;;;1.30;0.80;;;9.40;86.10;;;;;;5011835;28;20469;-73
2024/02/24 10:29:20;;;;;;;2.40;1.37;;;9.50;83.40;;;;;;5001100;28;20190;-74
2024/02/24 10:31:50;;;;;;;1.40;0.73;;;9.50;82.00;;;;;;5020389;28;20430;-75
2024/02/24 10:34:16;;;;;;;1.33;0.70;;;9.30;84.60;;;;;;5007698;28;20451;-76
2024/02/24 10:36:43;;;;;;;1.40;0.80;;;9.00;85.60;;;;;;5015686;28;20462;-77
2024/02/24 10:39:10;;;;;;;1.70;0.77;;;8.80;90.00;;;;;;5001547;28;20513;-73
2024/02/24 10:41:35;;;;;;;1.20;0.70;;;8.80;89.90;;;;;;4985154;28;20513;-75
2024/02/24 10:44:02;;;;;;;1.10;0.77;;;8.70;90.40;;;;;;5026729;28;20434;-76
2024/02/24 10:46:28;;;;;;;1.47;0.70;;;8.80;91.00;;;;;;5012230;28;20223;-76
2024/02/24 10:48:54;;;;;;;1.30;0.80;;;8.80;90.60;;;;;;5026651;28;20433;-75
2024/02/24 10:51:22;;;;;;;2.13;0.97;;;8.90;91.20;;;;;;5030318;28;20465;-78
2024/02/24 10:53:53;;;;;;;1.63;1.00;;;9.00;88.30;;;;;;5015528;28;20207;-75
2024/02/24 10:56:20;;;;;;;1.57;0.73;;;9.00;85.30;;;;;;5015616;28;20478;-77
2024/02/24 10:58:46;;;;;;;2.03;0.70;;;9.00;87.80;;;;;;5010667;28;20492;-77
2024/02/24 11:01:12;;;;;;;1.70;0.60;;;9.10;87.80;;;;;;5013105;28;20478;-78
2024/02/24 11:03:38;;;;;;;1.40;0.90;;;9.10;87.20;;;;;;5016833;28;20485;-77
2024/02/24 11:06:05;;;;;;;1.77;1.33;;;9.00;85.70;;;;;;4994645;28;20473;-75
2024/02/24 11:08:41;;;;;;;1.57;1.00;;;8.80;87.80;;;;;;5012000;28;20505;-75
2024/02/24 11:11:12;;;;;;;0.97;0.70;;;8.60;92.10;;;;;;5016939;28;20482;-77
2024/02/24 11:13:48;;;;;;;1.17;0.73;;;8.20;92.90;;;;;;5021422;28;20733;-76
2024/02/24 11:16:18;;;;;;;2.40;0.90;;;8.00;93.90;;;;;;5014419;28;20630;-73
2024/02/24 11:18:51;;;;;;;1.20;0.90;;;7.90;94.60;;;;;;5016654;28;20839;-75
2024/02/24 11:21:17;;;;;;;5.00;1.80;;;7.80;94.30;;;;;;5013089;28;20462;-76
2024/02/24 11:23:44;;;;;;;2.50;1.40;;;7.70;94.20;;;;;;5023867;28;20429;-75
2024/02/24 11:26:16;;;;;;;2.77;1.60;;;7.60;94.30;;;;;;5018478;28;20453;-75
2024/02/24 11:28:46;;;;;;;1.83;1.10;;;7.60;94.80;;;;;;5011994;28;20419;-76
2024/02/24 11:31:29;;;;;;;3.33;1.30;;;7.70;94.90;;;;;;5014702;28;20414;-76
2024/02/24 11:34:11;;;;;;;1.80;1.10;;;7.90;94.60;;;;;;5017329;28;20553;-77
2024/02/24 11:36:38;;;;;;;5.30;1.23;;;8.10;94.50;;;;;;5017441;28;20453;-76
2024/02/24 11:39:11;;;;;;;1.30;0.80;;;8.30;93.00;;;;;;5011869;28;20474;-76
2024/02/24 11:41:38;;;;;;;2.40;0.93;;;8.50;92.10;;;;;;5025108;28;20391;-74
2024/02/24 11:44:04;;;;;;;6.30;1.07;;;8.60;90.40;;;;;;5006341;28;20430;-76
2024/02/24 11:46:30;;;;;;;1.47;1.00;;;8.70;87.70;;;;;;5025973;28;20453;-76
2024/02/24 11:48:56;;;;;;;2.20;1.00;;;8.80;83.40;;;;;;4994608;28;20414;-77
2024/02/24 11:51:24;;;;;;;2.20;1.23;;;8.80;84.30;;;;;;5005051;28;20547;-75
2024/02/24 11:53:52;;;;;;;1.73;0.70;;;8.90;81.50;;;;;;5019627;28;20553;-76
2024/02/24 11:56:18;;;;;;;3.23;0.90;;;8.90;80.10;;;;;;5004930;28;20441;-76
2024/02/24 11:58:44;;;;;;;2.33;0.90;;;8.90;78.80;;;;;;5028032;28;20690;-75
2024/02/24 12:01:13;;;;;;;3.73;1.03;;;8.90;79.20;;;;;;5004077;28;20422;-76
2024/02/24 12:03:38;;;;;;;4.87;1.40;;;9.00;79.60;;;;;;5024128;28;20429;-77
2024/02/24 12:06:05;;;;;;;1.30;0.70;;;9.20;77.40;;;;;;5011866;28;20451;-75
2024/02/24 12:08:31;;;;;;;2.50;1.03;;;9.40;77.40;;;;;;5014503;28;20189;-76
2024/02/24 12:10:57;;;;;;;1.50;0.60;;;9.60;74.20;;;;;;5017257;28;20433;-75
2024/02/24 12:13:24;;;;;;;2.67;1.00;;;9.80;72.40;;;;;;5025871;28;20413;-77
2024/02/24 12:15:50;;;;;;;2.40;1.00;;;9.90;69.90;;;;;;5018384;28;20481;-77
2024/02/24 12:18:19;;;;;;;3.30;1.40;;;10.10;66.30;;;;;;5015617;28;20423;-76
2024/02/24 12:20:48;;;;;;;3.90;1.20;;;10.20;65.10;;;;;;5016301;28;20422;-76
2024/02/24 12:23:16;;;;;;;2.80;1.23;;;10.20;65.30;;;;;;5021267;28;20414;-77
2024/02/24 12:25:43;;;;;;;2.13;0.90;;;10.30;62.90;;;;;;5014199;28;20445;-76
2024/02/24 12:28:10;;;;;;;3.03;1.17;;;10.30;63.10;;;;;;5027274;28;20861;-76
2024/02/24 12:30:46;;;;;;;1.53;1.00;;;10.30;61.80;;;;;;5024673;28;20430;-77
2024/02/24 12:33:14;;;;;;;1.63;0.80;;;10.10;62.50;;;;;;5006801;28;20460;-78
2024/02/24 12:35:40;;;;;;;1.83;1.00;;;10.20;62.50;;;;;;5007236;28;20648;-75
2024/02/24 12:38:06;;;;;;;2.77;1.30;;;10.10;61.60;;;;;;5003591;28;20576;-78
2024/02/24 12:40:36;;;;;;;2.37;1.37;;;10.00;62.50;;;;;;5009558;28;20830;-75
2024/02/24 12:43:03;;;;;;;1.40;0.90;;;10.00;62.60;;;;;;5025020;28;20423;-77
2024/02/24 12:45:29;;;;;;;1.10;0.73;;;10.00;62.10;;;;;;5018791;28;20457;-77
2024/02/24 12:47:55;;;;;;;2.20;1.20;;;10.00;62.50;;;;;;5015740;28;20419;-76
2024/02/24 12:50:25;;;;;;;1.83;1.07;;;10.10;62.50;;;;;;5016172;28;20491;-78
2024/02/24 12:52:55;;;;;;;2.33;0.83;;;10.20;61.50;;;;;;5012227;28;20190;-77